createdAt,value
2023-01-17T00:01:13.568Z,49.60
2023-01-17T00:03:58.854Z,49.65
2023-01-17T00:06:44.130Z,49.53
2023-01-17T00:09:30.077Z,49.50
2023-01-17T00:11:56.894Z,49.66
2023-01-17T00:14:23.432Z,49.42
2023-01-17T00:16:50.000Z,49.57
2023-01-17T00:19:35.446Z,49.70
2023-01-17T00:22:20.755Z,49.80
2023-01-17T00:25:05.922Z,49.77
2023-01-17T00:27:32.406Z,50.02
2023-01-17T00:29:58.939Z,49.32
2023-01-17T00:32:25.435Z,49.55
2023-01-17T00:34:52.025Z,49.98
2023-01-17T00:37:18.548Z,49.48
2023-01-17T00:39:45.073Z,49.77
2023-01-17T00:42:11.579Z,49.67
2023-01-17T00:44:56.531Z,49.75
2023-01-17T00:47:41.673Z,49.38
2023-01-17T00:50:27.545Z,49.67
2023-01-17T00:53:12.993Z,49.26
2023-01-17T00:55:57.964Z,49.76
2023-01-17T00:58:43.254Z,49.75
2023-01-17T01:01:28.624Z,49.95
2023-01-17T01:04:14.002Z,49.87
2023-01-17T01:06:59.243Z,49.88
2023-01-17T01:09:44.403Z,50.34
2023-01-17T01:12:29.475Z,49.89
2023-01-17T01:15:14.718Z,49.89
2023-01-17T01:18:00.113Z,50.04
2023-01-17T01:20:45.265Z,49.81
2023-01-17T01:23:30.242Z,49.71
2023-01-17T01:26:15.126Z,49.37
2023-01-17T01:29:00.408Z,49.77
2023-01-17T01:31:45.386Z,49.77
2023-01-17T01:34:12.031Z,49.79
2023-01-17T01:36:38.532Z,49.59
2023-01-17T01:39:05.161Z,49.68
2023-01-17T01:41:31.685Z,49.62
2023-01-17T01:43:58.248Z,49.46
2023-01-17T01:46:40.487Z,49.84
2023-01-17T01:49:24.650Z,49.71
2023-01-17T01:51:53.395Z,49.60
2023-01-17T01:54:22.425Z,49.80
2023-01-17T01:56:49.225Z,49.89
2023-01-17T01:59:16.259Z,49.63
2023-01-17T02:01:42.850Z,49.87
2023-01-17T02:04:10.114Z,49.42
2023-01-17T02:07:00.502Z,49.87
2023-01-17T02:09:27.228Z,49.82
2023-01-17T02:11:56.809Z,49.91
2023-01-17T02:14:28.451Z,49.92
2023-01-17T02:17:06.857Z,49.79
2023-01-17T02:20:00.036Z,49.80
2023-01-17T02:22:45.115Z,49.94
2023-01-17T02:25:33.399Z,49.87
2023-01-17T02:28:18.609Z,49.89
2023-01-17T02:31:14.997Z,49.75
2023-01-17T02:34:10.946Z,49.77
2023-01-17T02:36:41.395Z,49.77
2023-01-17T02:39:14.063Z,49.77
2023-01-17T02:41:42.017Z,49.73
2023-01-17T02:44:09.971Z,49.57
2023-01-17T02:46:54.438Z,49.77
2023-01-17T02:49:24.307Z,49.65
2023-01-17T02:52:12.590Z,49.84
2023-01-17T02:54:51.242Z,49.71
2023-01-17T02:57:35.300Z,49.69
2023-01-17T03:00:17.877Z,49.67
2023-01-17T03:03:22.929Z,49.73
2023-01-17T03:05:52.210Z,50.02
2023-01-17T03:08:18.757Z,49.69
2023-01-17T03:10:45.364Z,49.75
2023-01-17T03:13:11.908Z,49.28
2023-01-17T03:15:39.517Z,49.75
2023-01-17T03:18:09.148Z,49.72
2023-01-17T03:20:35.709Z,49.86
2023-01-17T03:23:04.620Z,49.82
2023-01-17T03:25:37.068Z,49.94
2023-01-17T03:28:03.853Z,49.79
2023-01-17T03:30:30.422Z,50.10
2023-01-17T03:32:57.032Z,50.00
2023-01-17T03:35:23.616Z,49.74
2023-01-17T03:37:52.528Z,49.77
2023-01-17T03:40:19.106Z,49.73
2023-01-17T03:42:45.854Z,49.69
2023-01-17T03:45:12.503Z,49.84
2023-01-17T03:47:39.060Z,49.31
2023-01-17T03:50:06.010Z,49.66
2023-01-17T03:52:32.670Z,49.68
2023-01-17T03:55:02.364Z,49.75
2023-01-17T03:57:29.235Z,49.67
2023-01-17T03:59:55.798Z,49.21
2023-01-17T04:02:22.537Z,49.62
2023-01-17T04:04:49.083Z,49.78
2023-01-17T04:07:18.824Z,49.61
2023-01-17T04:09:45.362Z,49.63
2023-01-17T04:12:11.996Z,49.86
2023-01-17T04:14:38.625Z,49.78
2023-01-17T04:17:05.250Z,49.74
2023-01-17T04:19:32.053Z,49.57
2023-01-17T04:21:58.646Z,49.58
2023-01-17T04:24:25.212Z,49.70
2023-01-17T04:26:51.836Z,49.75
2023-01-17T04:29:18.521Z,49.75
2023-01-17T04:31:45.142Z,50.56
2023-01-17T04:34:11.725Z,49.61
2023-01-17T04:36:38.296Z,49.67
2023-01-17T04:39:05.023Z,49.71
2023-01-17T04:41:31.549Z,49.81
2023-01-17T04:43:58.123Z,49.62
2023-01-17T04:46:29.959Z,49.76
2023-01-17T04:48:56.485Z,50.13
2023-01-17T04:51:23.097Z,49.61
2023-01-17T04:53:49.607Z,49.97
2023-01-17T04:56:16.173Z,49.93
2023-01-17T04:58:42.859Z,49.54
2023-01-17T05:01:09.920Z,49.63
2023-01-17T05:03:36.591Z,49.58
2023-01-17T05:06:03.379Z,49.62
2023-01-17T05:08:29.963Z,49.63
2023-01-17T05:10:56.606Z,49.36
2023-01-17T05:13:23.204Z,49.58
2023-01-17T05:15:53.191Z,49.66
2023-01-17T05:18:19.970Z,49.63
2023-01-17T05:20:49.602Z,49.43
2023-01-17T05:23:16.306Z,49.52
2023-01-17T05:25:44.456Z,49.19
2023-01-17T05:28:13.604Z,49.58
2023-01-17T05:30:42.335Z,49.58
2023-01-17T05:33:10.328Z,49.73
2023-01-17T05:35:40.156Z,49.20
2023-01-17T05:38:06.865Z,49.48
2023-01-17T05:40:35.953Z,49.52
2023-01-17T05:43:05.599Z,49.51
2023-01-17T05:45:32.666Z,49.43
2023-01-17T05:48:01.409Z,49.53
2023-01-17T05:50:37.889Z,49.62
2023-01-17T05:53:16.153Z,48.15
2023-01-17T05:55:42.874Z,47.91
2023-01-17T05:58:16.766Z,48.15
2023-01-17T06:00:43.451Z,48.28
2023-01-17T06:03:10.127Z,48.06
2023-01-17T06:05:36.624Z,48.50
2023-01-17T06:08:03.284Z,48.62
2023-01-17T06:10:29.815Z,48.60
2023-01-17T06:13:07.359Z,48.05
2023-01-17T06:15:35.351Z,45.75
2023-01-17T06:18:06.412Z,44.12
2023-01-17T06:20:33.961Z,42.54
2023-01-17T06:23:02.492Z,41.94
2023-01-17T06:25:29.036Z,40.90
2023-01-17T06:27:55.656Z,39.86
2023-01-17T06:30:22.170Z,39.76
2023-01-17T06:32:53.127Z,39.39
2023-01-17T06:35:19.738Z,38.95
2023-01-17T06:37:46.279Z,38.52
2023-01-17T06:40:12.924Z,38.38
2023-01-17T06:42:39.456Z,38.86
2023-01-17T06:45:06.431Z,39.66
2023-01-17T06:47:33.033Z,40.80
2023-01-17T06:50:01.311Z,41.19
2023-01-17T06:52:27.796Z,41.52
2023-01-17T06:54:54.312Z,42.05
2023-01-17T06:57:20.800Z,42.13
2023-01-17T06:59:47.478Z,42.63
2023-01-17T07:02:14.531Z,43.21
2023-01-17T07:04:41.086Z,43.35
2023-01-17T07:07:07.635Z,42.30
2023-01-17T07:09:34.119Z,42.63
2023-01-17T07:12:01.948Z,41.64
2023-01-17T07:14:28.836Z,40.09
2023-01-17T07:16:55.996Z,39.75
2023-01-17T07:19:22.904Z,40.10
2023-01-17T07:21:53.159Z,40.71
2023-01-17T07:24:20.268Z,41.30
2023-01-17T07:26:50.464Z,41.82
2023-01-17T07:29:17.277Z,42.15
2023-01-17T07:31:43.951Z,42.79
2023-01-17T07:34:10.746Z,42.73
2023-01-17T07:36:37.251Z,43.15
2023-01-17T07:39:06.211Z,43.02
2023-01-17T07:41:34.635Z,43.31
2023-01-17T07:44:01.201Z,43.60
2023-01-17T07:46:27.813Z,43.09
2023-01-17T07:48:54.396Z,43.84
2023-01-17T07:51:20.916Z,43.84
2023-01-17T07:53:47.397Z,43.82
2023-01-17T07:56:13.901Z,44.04
2023-01-17T07:58:40.412Z,43.97
2023-01-17T08:01:11.772Z,44.07
2023-01-17T08:03:41.237Z,44.15
2023-01-17T08:06:29.202Z,44.16
2023-01-17T08:08:58.816Z,44.23
2023-01-17T08:11:25.691Z,43.28
2023-01-17T08:13:57.484Z,42.91
2023-01-17T08:16:24.970Z,42.81
2023-01-17T08:18:51.848Z,43.51
2023-01-17T08:21:18.428Z,43.60
2023-01-17T08:23:48.935Z,43.67
2023-01-17T08:26:21.358Z,43.82
2023-01-17T08:28:58.059Z,43.76
2023-01-17T08:31:24.812Z,43.76
2023-01-17T08:33:51.376Z,43.73
2023-01-17T08:36:17.934Z,43.67
2023-01-17T08:38:44.520Z,43.98
2023-01-17T08:41:11.089Z,44.25
2023-01-17T08:43:37.672Z,43.83
2023-01-17T08:46:06.336Z,44.32
2023-01-17T08:48:32.943Z,44.38
2023-01-17T08:51:04.019Z,44.65
2023-01-17T08:53:30.523Z,44.44
2023-01-17T08:55:58.554Z,44.62
2023-01-17T08:58:25.123Z,44.68
2023-01-17T09:00:51.756Z,44.72
2023-01-17T09:03:18.963Z,44.84
2023-01-17T09:05:45.609Z,44.66
2023-01-17T09:08:12.172Z,44.88
2023-01-17T09:10:38.677Z,44.81
2023-01-17T09:13:08.079Z,44.83
2023-01-17T09:15:34.597Z,44.88
2023-01-17T09:18:01.588Z,45.03
2023-01-17T09:20:30.206Z,44.68
2023-01-17T09:22:57.543Z,45.08
2023-01-17T09:25:24.125Z,45.10
2023-01-17T09:27:50.679Z,45.31
2023-01-17T09:30:17.500Z,45.32
2023-01-17T09:32:44.004Z,45.40
2023-01-17T09:35:10.614Z,45.18
2023-01-17T09:37:37.145Z,45.24
2023-01-17T09:40:03.963Z,45.46
2023-01-17T09:42:35.939Z,45.25
2023-01-17T09:45:02.600Z,45.60
2023-01-17T09:47:42.389Z,45.46
2023-01-17T09:50:25.755Z,45.43
2023-01-17T09:53:01.346Z,45.24
2023-01-17T09:55:31.375Z,43.34
2023-01-17T09:58:26.339Z,43.54
2023-01-17T10:00:58.765Z,43.88
2023-01-17T10:03:41.081Z,44.63
2023-01-17T10:06:16.504Z,44.63
2023-01-17T10:09:04.105Z,44.84
2023-01-17T10:11:53.576Z,44.97
2023-01-17T10:14:26.175Z,45.43
2023-01-17T10:16:58.187Z,45.05
2023-01-17T10:19:45.861Z,45.38
2023-01-17T10:22:31.042Z,45.35
2023-01-17T10:25:25.469Z,45.28
2023-01-17T10:28:18.922Z,45.30
2023-01-17T10:30:50.009Z,45.17
2023-01-17T10:33:19.674Z,45.17
2023-01-17T10:35:55.457Z,45.18
2023-01-17T10:38:24.116Z,45.20
2023-01-17T10:40:54.884Z,45.32
2023-01-17T10:43:36.674Z,45.32
2023-01-17T10:46:03.402Z,46.06
2023-01-17T10:48:36.200Z,45.53
2023-01-17T10:51:26.352Z,45.32
2023-01-17T10:54:04.916Z,45.40
2023-01-17T10:56:31.439Z,45.41
2023-01-17T10:59:20.171Z,45.68
2023-01-17T11:01:46.861Z,45.56
2023-01-17T11:04:30.494Z,45.61
2023-01-17T11:07:26.448Z,45.73
2023-01-17T11:09:54.518Z,45.43
2023-01-17T11:12:28.217Z,45.67
2023-01-17T11:14:59.186Z,45.71
2023-01-17T11:17:25.743Z,45.85
2023-01-17T11:19:52.371Z,45.95
2023-01-17T11:22:18.923Z,45.53
2023-01-17T11:24:49.201Z,45.98
2023-01-17T11:27:29.586Z,45.76
2023-01-17T11:30:18.989Z,45.96
2023-01-17T11:33:06.975Z,45.90
2023-01-17T11:35:43.892Z,45.88
2023-01-17T11:38:19.045Z,45.88
2023-01-17T11:40:46.695Z,45.97
2023-01-17T11:43:14.268Z,46.06
2023-01-17T11:45:41.101Z,45.99
2023-01-17T11:48:13.536Z,46.12
2023-01-17T11:50:57.253Z,45.98
2023-01-17T11:53:24.900Z,46.22
2023-01-17T11:56:04.096Z,46.11
2023-01-17T11:58:30.934Z,46.20
2023-01-17T12:01:17.178Z,46.28
2023-01-17T12:03:46.793Z,46.20
2023-01-17T12:06:31.398Z,46.18
2023-01-17T12:09:13.209Z,46.20
2023-01-17T12:12:09.092Z,46.17
2023-01-17T12:14:44.351Z,46.21
2023-01-17T12:17:11.542Z,46.25
2023-01-17T12:20:01.201Z,46.19
2023-01-17T12:23:13.774Z,46.34
2023-01-17T12:26:01.987Z,46.36
2023-01-17T12:28:46.230Z,46.37
2023-01-17T12:31:21.204Z,46.35
2023-01-17T12:34:13.915Z,46.26
2023-01-17T12:36:49.730Z,46.39
2023-01-17T12:39:16.613Z,46.29
2023-01-17T12:42:02.639Z,45.95
2023-01-17T12:44:45.462Z,44.99
2023-01-17T12:47:12.026Z,41.71
2023-01-17T12:49:54.332Z,39.61
2023-01-17T12:52:52.383Z,38.60
2023-01-17T12:55:23.786Z,38.22
2023-01-17T12:57:54.318Z,38.77
2023-01-17T13:00:22.886Z,39.61
2023-01-17T13:03:08.494Z,40.51
2023-01-17T13:05:40.949Z,40.70
2023-01-17T13:08:17.949Z,41.19
2023-01-17T13:10:48.497Z,41.29
2023-01-17T13:13:20.131Z,42.14
2023-01-17T13:15:46.820Z,42.16
2023-01-17T13:18:22.681Z,42.43
2023-01-17T13:21:26.688Z,42.63
2023-01-17T13:24:03.403Z,42.97
2023-01-17T13:26:49.377Z,42.95
2023-01-17T13:29:31.068Z,43.19
2023-01-17T13:32:13.316Z,43.32
2023-01-17T13:34:55.412Z,43.40
2023-01-17T13:37:30.972Z,43.54
2023-01-17T13:40:26.932Z,43.53
2023-01-17T13:43:02.531Z,43.81
2023-01-17T13:45:33.646Z,43.85
2023-01-17T13:48:12.267Z,44.00
2023-01-17T13:50:38.711Z,43.98
2023-01-17T13:53:27.171Z,44.18
2023-01-17T13:55:59.673Z,44.19
2023-01-17T13:58:30.112Z,44.33
2023-01-17T14:00:56.743Z,44.36
2023-01-17T14:03:54.171Z,44.75
2023-01-17T14:06:36.169Z,45.03
2023-01-17T14:09:12.689Z,44.93
2023-01-17T14:12:21.189Z,44.94
2023-01-17T14:14:48.840Z,45.04
2023-01-17T14:17:17.886Z,45.02
2023-01-17T14:19:48.131Z,45.07
2023-01-17T14:22:19.375Z,45.06
2023-01-17T14:25:17.438Z,45.28
2023-01-17T14:27:54.658Z,45.23
2023-01-17T14:30:22.487Z,45.31
2023-01-17T14:33:01.367Z,45.42
2023-01-17T14:35:30.020Z,45.30
2023-01-17T14:38:03.231Z,45.49
2023-01-17T14:40:30.992Z,45.30
2023-01-17T14:43:11.979Z,45.40
2023-01-17T14:45:38.710Z,45.56
2023-01-17T14:48:06.346Z,45.47
2023-01-17T14:50:37.688Z,45.46
2023-01-17T14:53:13.294Z,45.49
2023-01-17T14:55:49.036Z,45.58
2023-01-17T14:58:31.697Z,45.56
2023-01-17T15:01:16.973Z,45.48
2023-01-17T15:03:47.101Z,45.48
2023-01-17T15:06:24.770Z,45.54
2023-01-17T15:08:54.255Z,45.66
2023-01-17T15:11:25.773Z,45.77
2023-01-17T15:13:54.917Z,45.76
2023-01-17T15:16:23.580Z,45.64
2023-01-17T15:18:50.815Z,45.71
2023-01-17T15:21:19.587Z,45.88
2023-01-17T15:23:48.233Z,45.85
2023-01-17T15:26:16.093Z,45.83
2023-01-17T15:28:44.794Z,45.97
2023-01-17T15:31:24.759Z,46.01
2023-01-17T15:33:55.761Z,45.89
2023-01-17T15:40:20.063Z,46.17
2023-01-17T15:42:51.797Z,46.13
2023-01-17T15:45:20.849Z,46.08
2023-01-17T15:47:48.941Z,44.53
2023-01-17T15:50:26.477Z,42.25
2023-01-17T15:53:03.329Z,42.02
2023-01-17T15:55:33.619Z,42.83
2023-01-17T15:58:00.290Z,43.12
2023-01-17T16:00:38.244Z,43.86
2023-01-17T16:03:20.011Z,43.96
2023-01-17T16:05:46.880Z,44.20
2023-01-17T16:08:16.165Z,44.45
2023-01-17T16:10:43.107Z,44.51
2023-01-17T16:13:10.812Z,44.68
2023-01-17T16:15:37.663Z,44.66
2023-01-17T16:18:15.438Z,44.77
2023-01-17T16:20:44.903Z,44.50
2023-01-17T16:23:11.681Z,44.91
2023-01-17T16:25:38.375Z,44.82
2023-01-17T16:28:05.350Z,44.42
2023-01-17T16:30:32.040Z,44.86
2023-01-17T16:32:58.628Z,44.55
2023-01-17T16:35:32.886Z,45.10
2023-01-17T16:38:04.437Z,45.11
2023-01-17T16:40:32.349Z,45.17
2023-01-17T16:42:59.642Z,45.33
2023-01-17T16:45:26.317Z,45.20
2023-01-17T16:47:53.597Z,45.34
2023-01-17T16:50:24.779Z,45.27
2023-01-17T16:52:52.370Z,45.51
2023-01-17T16:55:22.055Z,45.57
2023-01-17T16:57:49.566Z,45.51
2023-01-17T17:00:16.649Z,45.54
2023-01-17T17:02:43.482Z,45.57
2023-01-17T17:05:10.295Z,45.43
2023-01-17T17:07:42.684Z,45.47
2023-01-17T17:10:10.256Z,45.78
2023-01-17T17:12:36.895Z,45.73
2023-01-17T17:15:03.631Z,45.81
2023-01-17T17:17:30.169Z,45.63
2023-01-17T17:19:56.699Z,45.81
2023-01-17T17:22:23.199Z,45.62
2023-01-17T17:24:49.679Z,46.17
2023-01-17T17:27:16.251Z,45.96
2023-01-17T17:29:42.789Z,45.83
2023-01-17T17:32:11.531Z,45.81
2023-01-17T17:34:38.651Z,45.78
2023-01-17T17:37:05.230Z,45.81
2023-01-17T17:39:32.119Z,45.76
2023-01-17T17:41:58.731Z,46.01
2023-01-17T17:44:25.266Z,45.41
2023-01-17T17:46:51.894Z,45.98
2023-01-17T17:49:18.514Z,46.08
2023-01-17T17:51:45.049Z,46.08
2023-01-17T17:54:12.507Z,46.14
2023-01-17T17:56:39.121Z,46.04
2023-01-17T17:59:07.776Z,46.00
2023-01-17T18:01:38.147Z,46.09
2023-01-17T18:04:07.106Z,46.04
2023-01-17T18:06:34.554Z,46.21
2023-01-17T18:09:01.739Z,46.23
2023-01-17T18:11:28.679Z,46.26
2023-01-17T18:13:56.008Z,46.30
2023-01-17T18:16:28.103Z,46.27
2023-01-17T18:18:56.080Z,46.40
2023-01-17T18:21:27.099Z,46.25
2023-01-17T18:24:01.669Z,46.37
2023-01-17T18:26:29.919Z,46.41
2023-01-17T18:28:57.082Z,46.46
2023-01-17T18:31:30.173Z,46.50
2023-01-17T18:34:01.235Z,46.53
2023-01-17T18:36:28.867Z,46.60
2023-01-17T18:38:55.385Z,46.39
2023-01-17T18:41:26.417Z,45.00
2023-01-17T18:43:53.146Z,43.66
2023-01-17T18:46:19.902Z,43.07
2023-01-17T18:48:46.476Z,41.32
2023-01-17T18:51:17.257Z,39.16
2023-01-17T18:53:44.557Z,38.03
2023-01-17T18:56:13.537Z,38.36
2023-01-17T18:58:44.169Z,38.93
2023-01-17T19:01:14.138Z,39.69
2023-01-17T19:03:41.892Z,40.82
2023-01-17T19:06:10.857Z,40.63
2023-01-17T19:08:37.433Z,41.03
2023-01-17T19:11:06.835Z,43.15
2023-01-17T19:13:34.820Z,43.32
2023-01-17T19:16:20.040Z,43.15
2023-01-17T19:18:47.145Z,43.20
2023-01-17T19:21:15.854Z,43.39
2023-01-17T19:23:43.595Z,43.60
2023-01-17T19:26:11.021Z,43.73
2023-01-17T19:28:41.320Z,43.77
2023-01-17T19:31:12.962Z,43.90
2023-01-17T19:33:40.628Z,43.86
2023-01-17T19:36:09.077Z,44.09
2023-01-17T19:38:36.395Z,44.30
2023-01-17T19:41:16.239Z,44.25
2023-01-17T19:43:42.757Z,44.90
2023-01-17T19:46:09.982Z,44.67
2023-01-17T19:48:37.173Z,44.71
2023-01-17T19:51:14.971Z,44.75
2023-01-17T19:53:41.647Z,44.75
2023-01-17T19:56:10.802Z,44.86
2023-01-17T19:58:39.147Z,45.28
2023-01-17T20:01:19.360Z,45.24
2023-01-17T20:03:50.996Z,45.14
2023-01-17T20:06:19.804Z,45.13
2023-01-17T20:08:46.455Z,45.38
2023-01-17T20:11:18.697Z,45.46
2023-01-17T20:13:46.216Z,45.58
2023-01-17T20:16:16.680Z,45.74
2023-01-17T20:18:43.529Z,45.62
2023-01-17T20:21:14.762Z,45.75
2023-01-17T20:23:47.009Z,45.73
2023-01-17T20:26:14.705Z,45.86
2023-01-17T20:28:44.681Z,46.07
2023-01-17T20:31:12.859Z,45.99
2023-01-17T20:33:43.152Z,45.99
2023-01-17T20:36:11.827Z,46.18
2023-01-17T20:38:47.710Z,46.21
2023-01-17T20:41:34.156Z,46.26
2023-01-17T20:44:06.860Z,46.27
2023-01-17T20:46:40.947Z,46.19
2023-01-17T20:49:10.375Z,46.49
2023-01-17T20:51:40.102Z,46.29
2023-01-17T20:54:07.754Z,46.16
2023-01-17T20:56:34.975Z,46.23
2023-01-17T20:59:03.969Z,46.34
2023-01-17T21:01:30.710Z,46.47
2023-01-17T21:03:57.589Z,46.75
2023-01-17T21:06:24.609Z,46.63
2023-01-17T21:08:54.422Z,46.73
2023-01-17T21:11:22.601Z,46.74
2023-01-17T21:13:49.210Z,46.74
2023-01-17T21:16:16.865Z,46.77
2023-01-17T21:18:47.694Z,46.82
2023-01-17T21:21:15.806Z,46.63
2023-01-17T21:23:44.823Z,46.74
2023-01-17T21:26:12.996Z,46.87
2023-01-17T21:28:40.543Z,47.04
2023-01-17T21:31:27.016Z,46.99
2023-01-17T21:33:57.301Z,47.28
2023-01-17T21:36:26.187Z,46.80
2023-01-17T21:38:57.170Z,47.00
2023-01-17T21:41:25.903Z,47.08
2023-01-17T21:43:56.624Z,47.33
2023-01-17T21:46:23.764Z,47.04
2023-01-17T21:48:50.406Z,47.06
2023-01-17T21:51:17.306Z,47.10
2023-01-17T21:53:45.082Z,47.08
2023-01-17T21:56:33.552Z,47.16
2023-01-17T21:59:03.446Z,46.82
2023-01-17T22:01:33.840Z,47.21
2023-01-17T22:04:01.665Z,47.44
2023-01-17T22:06:32.620Z,47.30
2023-01-17T22:09:00.543Z,47.63
2023-01-17T22:11:27.404Z,47.58
2023-01-17T22:13:59.001Z,47.38
2023-01-17T22:16:29.105Z,47.53
2023-01-17T22:18:55.787Z,47.53
2023-01-17T22:21:23.690Z,47.53
2023-01-17T22:23:54.954Z,47.62
2023-01-17T22:26:28.942Z,47.68
2023-01-17T22:28:55.669Z,47.65
2023-01-17T22:31:24.258Z,47.84
2023-01-17T22:34:00.961Z,47.57
2023-01-17T22:36:33.813Z,47.81
2023-01-17T22:39:00.705Z,47.48
2023-01-17T22:41:29.823Z,47.45
2023-01-17T22:43:58.636Z,47.67
2023-01-17T22:46:26.708Z,47.78
2023-01-17T22:48:53.855Z,47.89
2023-01-17T22:51:21.232Z,47.80
2023-01-17T22:53:54.482Z,47.80
2023-01-17T22:56:22.695Z,47.54
2023-01-17T22:58:49.672Z,47.82
2023-01-17T23:01:18.419Z,47.85
2023-01-17T23:03:45.256Z,47.95
2023-01-17T23:06:17.891Z,47.83
2023-01-17T23:08:45.588Z,48.00
2023-01-17T23:11:42.650Z,48.03
2023-01-17T23:14:16.490Z,48.10
2023-01-17T23:17:23.093Z,48.10
2023-01-17T23:19:51.179Z,48.23
2023-01-17T23:22:24.544Z,48.09
2023-01-17T23:25:01.397Z,48.10
2023-01-17T23:27:49.473Z,48.18
2023-01-17T23:30:26.400Z,48.37
2023-01-17T23:32:57.433Z,47.89
2023-01-17T23:35:27.558Z,48.13
2023-01-17T23:38:12.739Z,48.00
2023-01-17T23:40:39.442Z,48.01
2023-01-17T23:43:24.121Z,48.19
2023-01-17T23:45:51.515Z,48.14
2023-01-17T23:48:20.791Z,48.23
2023-01-17T23:50:50.337Z,48.26
2023-01-17T23:53:23.362Z,48.20
2023-01-17T23:55:51.720Z,48.40
2023-01-17T23:58:18.799Z,48.27
